sensor_id;sensor_type;location;lat;lon;timestamp;temperature;humidity
74657;DHT22;63185;45.642;13.764;2022-10-15T00:01:43;18.40;58.70
74657;DHT22;63185;45.642;13.764;2022-10-15T00:04:08;18.40;58.50
74657;DHT22;63185;45.642;13.764;2022-10-15T00:06:34;18.40;58.80
74657;DHT22;63185;45.642;13.764;2022-10-15T00:09:00;18.40;58.40
74657;DHT22;63185;45.642;13.764;2022-10-15T00:11:27;18.40;58.00
74657;DHT22;63185;45.642;13.764;2022-10-15T00:13:55;18.30;58.20
74657;DHT22;63185;45.642;13.764;2022-10-15T00:16:23;18.30;57.80
74657;DHT22;63185;45.642;13.764;2022-10-15T00:18:50;18.30;58.40
74657;DHT22;63185;45.642;13.764;2022-10-15T00:21:19;18.20;58.50
74657;DHT22;63185;45.642;13.764;2022-10-15T00:23:46;18.20;58.50
74657;DHT22;63185;45.642;13.764;2022-10-15T00:26:14;18.20;58.50
74657;DHT22;63185;45.642;13.764;2022-10-15T00:28:41;18.20;58.50
74657;DHT22;63185;45.642;13.764;2022-10-15T00:31:13;18.20;58.80
74657;DHT22;63185;45.642;13.764;2022-10-15T00:33:39;18.10;59.10
74657;DHT22;63185;45.642;13.764;2022-10-15T00:36:09;18.10;59.00
74657;DHT22;63185;45.642;13.764;2022-10-15T00:38:35;18.10;58.90
74657;DHT22;63185;45.642;13.764;2022-10-15T00:41:02;18.10;58.90
74657;DHT22;63185;45.642;13.764;2022-10-15T00:48:45;18.10;58.50
74657;DHT22;63185;45.642;13.764;2022-10-15T00:51:13;18.10;58.80
74657;DHT22;63185;45.642;13.764;2022-10-15T00:53:39;18.10;59.00
74657;DHT22;63185;45.642;13.764;2022-10-15T00:56:05;18.10;58.70
74657;DHT22;63185;45.642;13.764;2022-10-15T00:58:32;18.10;58.40
74657;DHT22;63185;45.642;13.764;2022-10-15T01:00:58;18.10;58.40
74657;DHT22;63185;45.642;13.764;2022-10-15T01:03:24;18.10;58.40
74657;DHT22;63185;45.642;13.764;2022-10-15T01:05:51;18.10;58.20
74657;DHT22;63185;45.642;13.764;2022-10-15T01:08:17;18.10;58.10
74657;DHT22;63185;45.642;13.764;2022-10-15T01:15:59;18.10;58.20
74657;DHT22;63185;45.642;13.764;2022-10-15T01:18:32;18.10;58.60
74657;DHT22;63185;45.642;13.764;2022-10-15T01:21:15;18.10;58.60
74657;DHT22;63185;45.642;13.764;2022-10-15T01:29:30;18.10;58.30
74657;DHT22;63185;45.642;13.764;2022-10-15T01:37:40;18.00;59.00
74657;DHT22;63185;45.642;13.764;2022-10-15T01:40:13;18.00;58.60
74657;DHT22;63185;45.642;13.764;2022-10-15T01:43:00;18.00;58.80
74657;DHT22;63185;45.642;13.764;2022-10-15T01:45:33;17.90;59.00
74657;DHT22;63185;45.642;13.764;2022-10-15T01:48:03;17.90;59.00
74657;DHT22;63185;45.642;13.764;2022-10-15T01:50:32;17.90;58.90
74657;DHT22;63185;45.642;13.764;2022-10-15T01:52:59;17.90;59.10
74657;DHT22;63185;45.642;13.764;2022-10-15T01:55:26;17.90;58.90
74657;DHT22;63185;45.642;13.764;2022-10-15T01:57:55;17.90;59.10
74657;DHT22;63185;45.642;13.764;2022-10-15T02:00:22;17.90;58.80
74657;DHT22;63185;45.642;13.764;2022-10-15T02:02:48;17.90;58.60
74657;DHT22;63185;45.642;13.764;2022-10-15T02:05:23;17.90;58.50
74657;DHT22;63185;45.642;13.764;2022-10-15T02:07:55;17.90;58.90
74657;DHT22;63185;45.642;13.764;2022-10-15T02:13:30;17.90;58.80
74657;DHT22;63185;45.642;13.764;2022-10-15T02:19:49;18.00;58.70
74657;DHT22;63185;45.642;13.764;2022-10-15T02:22:25;18.00;59.00
74657;DHT22;63185;45.642;13.764;2022-10-15T02:24:57;18.00;58.80
74657;DHT22;63185;45.642;13.764;2022-10-15T02:27:27;18.00;59.10
74657;DHT22;63185;45.642;13.764;2022-10-15T02:29:55;18.10;59.00
74657;DHT22;63185;45.642;13.764;2022-10-15T02:32:23;18.00;59.20
74657;DHT22;63185;45.642;13.764;2022-10-15T02:34:49;18.00;59.10
74657;DHT22;63185;45.642;13.764;2022-10-15T02:37:20;18.00;58.90
74657;DHT22;63185;45.642;13.764;2022-10-15T02:39:46;18.10;59.10
74657;DHT22;63185;45.642;13.764;2022-10-15T02:42:14;18.00;58.90
74657;DHT22;63185;45.642;13.764;2022-10-15T02:44:41;18.00;58.90
74657;DHT22;63185;45.642;13.764;2022-10-15T02:47:06;18.00;58.80
74657;DHT22;63185;45.642;13.764;2022-10-15T02:49:32;18.00;58.80
74657;DHT22;63185;45.642;13.764;2022-10-15T02:51:57;18.10;58.90
74657;DHT22;63185;45.642;13.764;2022-10-15T02:54:23;18.00;59.00
74657;DHT22;63185;45.642;13.764;2022-10-15T02:56:49;18.00;59.10
74657;DHT22;63185;45.642;13.764;2022-10-15T02:59:15;18.00;59.30
74657;DHT22;63185;45.642;13.764;2022-10-15T03:01:42;18.10;58.90
74657;DHT22;63185;45.642;13.764;2022-10-15T03:04:08;18.10;59.20
74657;DHT22;63185;45.642;13.764;2022-10-15T03:06:34;18.10;58.90
74657;DHT22;63185;45.642;13.764;2022-10-15T03:08:59;18.10;58.70
74657;DHT22;63185;45.642;13.764;2022-10-15T03:11:25;18.10;58.80
74657;DHT22;63185;45.642;13.764;2022-10-15T03:13:51;18.20;58.20
74657;DHT22;63185;45.642;13.764;2022-10-15T03:16:16;18.20;58.20
74657;DHT22;63185;45.642;13.764;2022-10-15T03:18:42;18.20;58.20
74657;DHT22;63185;45.642;13.764;2022-10-15T03:21:08;18.10;58.40
74657;DHT22;63185;45.642;13.764;2022-10-15T03:23:34;18.20;58.70
74657;DHT22;63185;45.642;13.764;2022-10-15T03:25:59;18.20;58.50
74657;DHT22;63185;45.642;13.764;2022-10-15T03:28:25;18.30;58.70
74657;DHT22;63185;45.642;13.764;2022-10-15T03:30:51;18.20;58.80
74657;DHT22;63185;45.642;13.764;2022-10-15T03:33:16;18.20;59.20
74657;DHT22;63185;45.642;13.764;2022-10-15T03:35:42;18.20;59.50
74657;DHT22;63185;45.642;13.764;2022-10-15T03:38:08;18.20;59.50
74657;DHT22;63185;45.642;13.764;2022-10-15T03:40:34;18.10;59.80
74657;DHT22;63185;45.642;13.764;2022-10-15T03:42:59;18.10;59.90
74657;DHT22;63185;45.642;13.764;2022-10-15T03:45:26;18.10;59.80
74657;DHT22;63185;45.642;13.764;2022-10-15T03:47:52;18.00;60.00
74657;DHT22;63185;45.642;13.764;2022-10-15T03:50:18;18.00;59.90
74657;DHT22;63185;45.642;13.764;2022-10-15T03:52:43;18.00;60.10
74657;DHT22;63185;45.642;13.764;2022-10-15T03:55:09;17.90;60.60
74657;DHT22;63185;45.642;13.764;2022-10-15T03:57:38;18.00;60.50
74657;DHT22;63185;45.642;13.764;2022-10-15T04:00:07;18.00;60.50
74657;DHT22;63185;45.642;13.764;2022-10-15T04:02:33;18.00;60.20
74657;DHT22;63185;45.642;13.764;2022-10-15T04:04:58;18.00;59.90
74657;DHT22;63185;45.642;13.764;2022-10-15T04:07:24;18.00;59.70
74657;DHT22;63185;45.642;13.764;2022-10-15T04:09:50;18.00;59.70
74657;DHT22;63185;45.642;13.764;2022-10-15T04:12:16;18.00;59.30
74657;DHT22;63185;45.642;13.764;2022-10-15T04:14:42;18.10;58.90
74657;DHT22;63185;45.642;13.764;2022-10-15T04:17:10;18.10;58.80
74657;DHT22;63185;45.642;13.764;2022-10-15T04:19:35;18.20;58.50
74657;DHT22;63185;45.642;13.764;2022-10-15T04:22:01;18.20;57.70
74657;DHT22;63185;45.642;13.764;2022-10-15T04:24:27;18.20;57.70
74657;DHT22;63185;45.642;13.764;2022-10-15T04:26:52;18.30;58.10
74657;DHT22;63185;45.642;13.764;2022-10-15T04:29:18;18.20;58.30
74657;DHT22;63185;45.642;13.764;2022-10-15T04:31:44;18.20;58.70
74657;DHT22;63185;45.642;13.764;2022-10-15T04:34:10;18.10;58.40
74657;DHT22;63185;45.642;13.764;2022-10-15T04:36:36;18.10;58.80
74657;DHT22;63185;45.642;13.764;2022-10-15T04:39:03;18.10;59.00
74657;DHT22;63185;45.642;13.764;2022-10-15T04:41:29;18.10;59.40
74657;DHT22;63185;45.642;13.764;2022-10-15T04:43:56;18.10;59.30
74657;DHT22;63185;45.642;13.764;2022-10-15T04:46:22;18.10;59.70
74657;DHT22;63185;45.642;13.764;2022-10-15T04:48:48;18.10;59.90
74657;DHT22;63185;45.642;13.764;2022-10-15T04:51:16;18.10;59.70
74657;DHT22;63185;45.642;13.764;2022-10-15T04:53:43;18.20;59.90
74657;DHT22;63185;45.642;13.764;2022-10-15T04:56:14;18.20;59.90
74657;DHT22;63185;45.642;13.764;2022-10-15T04:58:42;18.20;60.30
74657;DHT22;63185;45.642;13.764;2022-10-15T05:01:12;18.20;60.50
74657;DHT22;63185;45.642;13.764;2022-10-15T05:03:40;18.20;60.60
74657;DHT22;63185;45.642;13.764;2022-10-15T05:06:11;18.20;60.30
74657;DHT22;63185;45.642;13.764;2022-10-15T05:08:38;18.20;60.30
74657;DHT22;63185;45.642;13.764;2022-10-15T05:11:11;18.30;59.80
74657;DHT22;63185;45.642;13.764;2022-10-15T05:13:36;18.30;59.20
74657;DHT22;63185;45.642;13.764;2022-10-15T05:16:23;18.30;59.10
74657;DHT22;63185;45.642;13.764;2022-10-15T05:18:51;18.30;58.90
74657;DHT22;63185;45.642;13.764;2022-10-15T05:21:18;18.40;58.80
74657;DHT22;63185;45.642;13.764;2022-10-15T05:23:44;18.40;58.90
74657;DHT22;63185;45.642;13.764;2022-10-15T05:26:14;18.40;58.70
74657;DHT22;63185;45.642;13.764;2022-10-15T05:28:40;18.40;59.20
74657;DHT22;63185;45.642;13.764;2022-10-15T05:31:08;18.40;59.10
74657;DHT22;63185;45.642;13.764;2022-10-15T05:33:34;18.40;59.40
74657;DHT22;63185;45.642;13.764;2022-10-15T05:36:20;18.40;59.60
74657;DHT22;63185;45.642;13.764;2022-10-15T05:38:49;18.40;59.70
74657;DHT22;63185;45.642;13.764;2022-10-15T05:41:15;18.40;59.80
74657;DHT22;63185;45.642;13.764;2022-10-15T05:43:41;18.50;59.30
74657;DHT22;63185;45.642;13.764;2022-10-15T05:46:08;18.50;59.00
74657;DHT22;63185;45.642;13.764;2022-10-15T05:48:34;18.50;58.90
74657;DHT22;63185;45.642;13.764;2022-10-15T05:51:04;18.50;59.00
74657;DHT22;63185;45.642;13.764;2022-10-15T05:53:30;18.50;59.00
74657;DHT22;63185;45.642;13.764;2022-10-15T05:55:56;18.60;59.30
74657;DHT22;63185;45.642;13.764;2022-10-15T05:58:26;18.60;58.90
74657;DHT22;63185;45.642;13.764;2022-10-15T06:00:58;18.60;58.70
74657;DHT22;63185;45.642;13.764;2022-10-15T06:03:25;18.60;58.50
74657;DHT22;63185;45.642;13.764;2022-10-15T06:05:51;18.60;59.00
74657;DHT22;63185;45.642;13.764;2022-10-15T06:08:17;18.70;58.90
74657;DHT22;63185;45.642;13.764;2022-10-15T06:10:44;18.70;58.80
74657;DHT22;63185;45.642;13.764;2022-10-15T06:13:10;18.80;58.90
74657;DHT22;63185;45.642;13.764;2022-10-15T06:15:43;18.80;58.90
74657;DHT22;63185;45.642;13.764;2022-10-15T06:18:10;18.90;59.10
74657;DHT22;63185;45.642;13.764;2022-10-15T06:20:36;18.90;59.10
74657;DHT22;63185;45.642;13.764;2022-10-15T06:23:03;18.90;59.40
74657;DHT22;63185;45.642;13.764;2022-10-15T06:25:30;19.00;59.40
74657;DHT22;63185;45.642;13.764;2022-10-15T06:28:03;19.00;59.50
74657;DHT22;63185;45.642;13.764;2022-10-15T06:30:29;19.10;59.70
74657;DHT22;63185;45.642;13.764;2022-10-15T06:32:56;19.10;60.00
74657;DHT22;63185;45.642;13.764;2022-10-15T06:35:22;19.10;60.40
74657;DHT22;63185;45.642;13.764;2022-10-15T06:37:48;19.20;60.50
74657;DHT22;63185;45.642;13.764;2022-10-15T06:40:14;19.20;60.80
74657;DHT22;63185;45.642;13.764;2022-10-15T06:42:40;19.30;61.00
74657;DHT22;63185;45.642;13.764;2022-10-15T06:45:07;19.20;61.10
74657;DHT22;63185;45.642;13.764;2022-10-15T06:47:38;19.30;60.70
74657;DHT22;63185;45.642;13.764;2022-10-15T06:50:04;19.30;60.60
74657;DHT22;63185;45.642;13.764;2022-10-15T06:52:31;19.40;60.20
74657;DHT22;63185;45.642;13.764;2022-10-15T06:54:57;19.40;60.30
74657;DHT22;63185;45.642;13.764;2022-10-15T06:57:23;19.50;59.70
74657;DHT22;63185;45.642;13.764;2022-10-15T06:59:50;19.60;59.70
74657;DHT22;63185;45.642;13.764;2022-10-15T07:02:16;19.60;59.80
74657;DHT22;63185;45.642;13.764;2022-10-15T07:04:44;19.60;60.10
74657;DHT22;63185;45.642;13.764;2022-10-15T07:07:10;19.70;59.50
74657;DHT22;63185;45.642;13.764;2022-10-15T07:09:36;19.80;59.30
74657;DHT22;63185;45.642;13.764;2022-10-15T07:12:02;19.80;59.40
74657;DHT22;63185;45.642;13.764;2022-10-15T07:14:28;19.90;59.10
74657;DHT22;63185;45.642;13.764;2022-10-15T07:16:53;19.90;59.20
74657;DHT22;63185;45.642;13.764;2022-10-15T07:19:19;20.00;58.90
74657;DHT22;63185;45.642;13.764;2022-10-15T07:21:45;20.10;58.60
74657;DHT22;63185;45.642;13.764;2022-10-15T07:24:10;20.10;57.90
74657;DHT22;63185;45.642;13.764;2022-10-15T07:26:39;20.20;57.90
74657;DHT22;63185;45.642;13.764;2022-10-15T07:29:05;20.30;57.90
74657;DHT22;63185;45.642;13.764;2022-10-15T07:31:31;20.40;57.40
74657;DHT22;63185;45.642;13.764;2022-10-15T07:33:57;20.40;57.50
74657;DHT22;63185;45.642;13.764;2022-10-15T07:36:24;20.50;57.50
74657;DHT22;63185;45.642;13.764;2022-10-15T07:38:50;20.60;56.70
74657;DHT22;63185;45.642;13.764;2022-10-15T07:41:16;20.70;56.30
74657;DHT22;63185;45.642;13.764;2022-10-15T07:43:42;20.80;55.70
74657;DHT22;63185;45.642;13.764;2022-10-15T07:46:08;20.80;55.60
74657;DHT22;63185;45.642;13.764;2022-10-15T07:48:34;20.90;54.90
74657;DHT22;63185;45.642;13.764;2022-10-15T07:51:04;21.00;55.20
74657;DHT22;63185;45.642;13.764;2022-10-15T07:53:31;21.10;55.30
74657;DHT22;63185;45.642;13.764;2022-10-15T07:55:58;21.20;55.20
74657;DHT22;63185;45.642;13.764;2022-10-15T07:58:25;21.30;55.00
74657;DHT22;63185;45.642;13.764;2022-10-15T08:00:50;21.40;54.50
74657;DHT22;63185;45.642;13.764;2022-10-15T08:03:16;21.50;54.50
74657;DHT22;63185;45.642;13.764;2022-10-15T08:05:42;21.50;54.00
74657;DHT22;63185;45.642;13.764;2022-10-15T08:08:07;21.60;54.20
74657;DHT22;63185;45.642;13.764;2022-10-15T08:10:35;21.60;54.20
74657;DHT22;63185;45.642;13.764;2022-10-15T08:13:01;21.70;53.90
74657;DHT22;63185;45.642;13.764;2022-10-15T08:15:26;21.80;53.70
74657;DHT22;63185;45.642;13.764;2022-10-15T08:17:52;21.90;53.90
74657;DHT22;63185;45.642;13.764;2022-10-15T08:20:18;21.90;53.90
74657;DHT22;63185;45.642;13.764;2022-10-15T08:22:43;21.90;53.80
74657;DHT22;63185;45.642;13.764;2022-10-15T08:25:09;21.80;54.10
74657;DHT22;63185;45.642;13.764;2022-10-15T08:27:35;21.80;54.10
74657;DHT22;63185;45.642;13.764;2022-10-15T08:30:01;21.70;54.10
74657;DHT22;63185;45.642;13.764;2022-10-15T08:32:26;21.90;53.90
74657;DHT22;63185;45.642;13.764;2022-10-15T08:34:52;22.00;54.00
74657;DHT22;63185;45.642;13.764;2022-10-15T08:37:18;22.10;54.20
74657;DHT22;63185;45.642;13.764;2022-10-15T08:39:43;22.20;53.60
74657;DHT22;63185;45.642;13.764;2022-10-15T08:42:42;22.30;53.40
74657;DHT22;63185;45.642;13.764;2022-10-15T08:45:37;22.50;53.20
74657;DHT22;63185;45.642;13.764;2022-10-15T08:48:10;22.50;53.10
74657;DHT22;63185;45.642;13.764;2022-10-15T08:53:15;22.80;52.90
74657;DHT22;63185;45.642;13.764;2022-10-15T08:55:46;22.90;53.40
74657;DHT22;63185;45.642;13.764;2022-10-15T09:01:09;23.30;52.20
74657;DHT22;63185;45.642;13.764;2022-10-15T09:03:51;23.60;51.80
74657;DHT22;63185;45.642;13.764;2022-10-15T09:06:25;23.80;51.40
74657;DHT22;63185;45.642;13.764;2022-10-15T09:09:27;24.00;52.00
74657;DHT22;63185;45.642;13.764;2022-10-15T09:15:11;24.30;51.80
74657;DHT22;63185;45.642;13.764;2022-10-15T09:17:38;24.40;51.70
74657;DHT22;63185;45.642;13.764;2022-10-15T09:20:19;24.40;52.30
74657;DHT22;63185;45.642;13.764;2022-10-15T09:22:50;24.40;52.40
74657;DHT22;63185;45.642;13.764;2022-10-15T09:25:19;24.30;52.90
74657;DHT22;63185;45.642;13.764;2022-10-15T09:27:47;24.20;53.20
74657;DHT22;63185;45.642;13.764;2022-10-15T09:36:26;23.70;55.30
74657;DHT22;63185;45.642;13.764;2022-10-15T09:44:39;23.60;55.80
74657;DHT22;63185;45.642;13.764;2022-10-15T09:47:26;23.70;55.60
74657;DHT22;63185;45.642;13.764;2022-10-15T09:49:52;23.70;55.00
74657;DHT22;63185;45.642;13.764;2022-10-15T09:52:37;23.80;55.70
74657;DHT22;63185;45.642;13.764;2022-10-15T09:57:55;23.60;55.10
74657;DHT22;63185;45.642;13.764;2022-10-15T10:00:21;23.70;56.00
74657;DHT22;63185;45.642;13.764;2022-10-15T10:03:04;23.70;55.50
74657;DHT22;63185;45.642;13.764;2022-10-15T10:05:35;23.80;55.10
74657;DHT22;63185;45.642;13.764;2022-10-15T10:08:20;23.80;55.00
74657;DHT22;63185;45.642;13.764;2022-10-15T10:11:13;23.80;54.40
74657;DHT22;63185;45.642;13.764;2022-10-15T10:16:14;24.00;54.90
74657;DHT22;63185;45.642;13.764;2022-10-15T10:18:41;23.70;55.70
74657;DHT22;63185;45.642;13.764;2022-10-15T10:21:27;23.60;55.60
74657;DHT22;63185;45.642;13.764;2022-10-15T10:23:54;23.70;55.50
74657;DHT22;63185;45.642;13.764;2022-10-15T10:26:20;23.60;55.90
74657;DHT22;63185;45.642;13.764;2022-10-15T10:28:56;23.70;55.90
74657;DHT22;63185;45.642;13.764;2022-10-15T10:31:31;24.10;55.00
74657;DHT22;63185;45.642;13.764;2022-10-15T10:34:01;24.50;53.50
74657;DHT22;63185;45.642;13.764;2022-10-15T10:36:30;24.30;54.00
74657;DHT22;63185;45.642;13.764;2022-10-15T10:39:05;24.30;54.50
74657;DHT22;63185;45.642;13.764;2022-10-15T10:41:53;24.30;53.40
74657;DHT22;63185;45.642;13.764;2022-10-15T10:49:44;24.30;54.70
74657;DHT22;63185;45.642;13.764;2022-10-15T10:52:23;24.20;54.80
74657;DHT22;63185;45.642;13.764;2022-10-15T10:55:16;24.50;53.70
74657;DHT22;63185;45.642;13.764;2022-10-15T10:58:00;24.50;55.00
74657;DHT22;63185;45.642;13.764;2022-10-15T11:00:49;24.40;53.20
74657;DHT22;63185;45.642;13.764;2022-10-15T11:03:35;24.10;55.10
74657;DHT22;63185;45.642;13.764;2022-10-15T11:08:49;24.50;52.60
74657;DHT22;63185;45.642;13.764;2022-10-15T11:11:27;24.60;53.30
74657;DHT22;63185;45.642;13.764;2022-10-15T11:44:20;22.90;61.20
74657;DHT22;63185;45.642;13.764;2022-10-15T11:55:13;22.60;62.00
74657;DHT22;63185;45.642;13.764;2022-10-15T11:57:44;22.90;61.30
74657;DHT22;63185;45.642;13.764;2022-10-15T12:02:54;22.80;60.90
74657;DHT22;63185;45.642;13.764;2022-10-15T12:05:30;22.90;61.50
74657;DHT22;63185;45.642;13.764;2022-10-15T12:07:58;22.90;61.30
74657;DHT22;63185;45.642;13.764;2022-10-15T12:18:26;23.00;61.60
74657;DHT22;63185;45.642;13.764;2022-10-15T12:20:56;22.70;61.30
74657;DHT22;63185;45.642;13.764;2022-10-15T12:26:31;22.40;62.90
74657;DHT22;63185;45.642;13.764;2022-10-15T12:28:59;22.60;63.20
74657;DHT22;63185;45.642;13.764;2022-10-15T12:31:48;22.70;61.40
74657;DHT22;63185;45.642;13.764;2022-10-15T12:37:05;23.00;61.00
74657;DHT22;63185;45.642;13.764;2022-10-15T12:39:36;22.90;61.50
74657;DHT22;63185;45.642;13.764;2022-10-15T12:42:04;22.90;61.20
74657;DHT22;63185;45.642;13.764;2022-10-15T12:44:47;22.80;61.90
74657;DHT22;63185;45.642;13.764;2022-10-15T12:47:13;23.00;61.60
74657;DHT22;63185;45.642;13.764;2022-10-15T12:55:37;22.90;61.30
74657;DHT22;63185;45.642;13.764;2022-10-15T13:00:48;22.80;62.00
74657;DHT22;63185;45.642;13.764;2022-10-15T13:05:40;22.60;62.10
74657;DHT22;63185;45.642;13.764;2022-10-15T13:08:12;22.70;62.20
74657;DHT22;63185;45.642;13.764;2022-10-15T13:10:46;22.70;62.10
74657;DHT22;63185;45.642;13.764;2022-10-15T13:13:15;22.70;62.20
74657;DHT22;63185;45.642;13.764;2022-10-15T13:15:49;22.60;62.60
74657;DHT22;63185;45.642;13.764;2022-10-15T13:18:15;22.70;62.10
74657;DHT22;63185;45.642;13.764;2022-10-15T13:20:43;22.60;62.00
74657;DHT22;63185;45.642;13.764;2022-10-15T13:26:14;23.00;61.00
74657;DHT22;63185;45.642;13.764;2022-10-15T13:28:42;22.90;61.50
74657;DHT22;63185;45.642;13.764;2022-10-15T13:31:23;22.90;61.90
74657;DHT22;63185;45.642;13.764;2022-10-15T13:33:56;22.90;61.90
74657;DHT22;63185;45.642;13.764;2022-10-15T13:36:32;23.00;62.00
74657;DHT22;63185;45.642;13.764;2022-10-15T13:39:07;23.10;61.30
74657;DHT22;63185;45.642;13.764;2022-10-15T13:41:37;23.30;60.80
74657;DHT22;63185;45.642;13.764;2022-10-15T13:44:05;23.50;60.70
74657;DHT22;63185;45.642;13.764;2022-10-15T13:46:35;23.60;60.10
74657;DHT22;63185;45.642;13.764;2022-10-15T13:49:08;23.60;59.90
74657;DHT22;63185;45.642;13.764;2022-10-15T13:51:44;23.50;60.20
74657;DHT22;63185;45.642;13.764;2022-10-15T13:54:15;23.40;59.90
74657;DHT22;63185;45.642;13.764;2022-10-15T13:56:43;23.20;60.90
74657;DHT22;63185;45.642;13.764;2022-10-15T13:59:17;23.20;60.30
74657;DHT22;63185;45.642;13.764;2022-10-15T14:01:47;23.40;60.50
74657;DHT22;63185;45.642;13.764;2022-10-15T14:04:18;23.60;60.10
74657;DHT22;63185;45.642;13.764;2022-10-15T14:06:57;23.90;59.40
74657;DHT22;63185;45.642;13.764;2022-10-15T14:09:33;23.90;58.70
74657;DHT22;63185;45.642;13.764;2022-10-15T14:12:00;23.80;58.50
74657;DHT22;63185;45.642;13.764;2022-10-15T14:14:43;23.60;59.80
74657;DHT22;63185;45.642;13.764;2022-10-15T14:19:49;23.50;60.00
74657;DHT22;63185;45.642;13.764;2022-10-15T14:22:19;23.60;59.70
74657;DHT22;63185;45.642;13.764;2022-10-15T14:24:49;23.60;59.50
74657;DHT22;63185;45.642;13.764;2022-10-15T14:27:22;23.50;60.30
74657;DHT22;63185;45.642;13.764;2022-10-15T14:29:53;23.80;58.60
74657;DHT22;63185;45.642;13.764;2022-10-15T14:32:26;24.20;58.00
74657;DHT22;63185;45.642;13.764;2022-10-15T14:34:57;24.30;57.50
74657;DHT22;63185;45.642;13.764;2022-10-15T14:42:42;24.40;57.00
74657;DHT22;63185;45.642;13.764;2022-10-15T14:47:45;24.60;56.10
74657;DHT22;63185;45.642;13.764;2022-10-15T14:50:12;24.90;55.40
74657;DHT22;63185;45.642;13.764;2022-10-15T14:52:46;25.00;55.70
74657;DHT22;63185;45.642;13.764;2022-10-15T14:57:49;26.10;51.80
74657;DHT22;63185;45.642;13.764;2022-10-15T15:00:32;26.70;50.30
74657;DHT22;63185;45.642;13.764;2022-10-15T15:03:04;27.00;49.30
74657;DHT22;63185;45.642;13.764;2022-10-15T15:05:43;26.50;50.40
74657;DHT22;63185;45.642;13.764;2022-10-15T15:08:10;26.00;51.40
74657;DHT22;63185;45.642;13.764;2022-10-15T15:10:36;26.10;51.20
74657;DHT22;63185;45.642;13.764;2022-10-15T15:13:01;26.30;51.00
74657;DHT22;63185;45.642;13.764;2022-10-15T15:15:27;26.50;50.00
74657;DHT22;63185;45.642;13.764;2022-10-15T15:17:53;26.40;50.60
74657;DHT22;63185;45.642;13.764;2022-10-15T15:20:19;26.80;49.70
74657;DHT22;63185;45.642;13.764;2022-10-15T15:22:47;26.90;49.50
74657;DHT22;63185;45.642;13.764;2022-10-15T15:25:27;27.00;49.10
74657;DHT22;63185;45.642;13.764;2022-10-15T15:27:53;26.40;50.90
74657;DHT22;63185;45.642;13.764;2022-10-15T15:30:21;25.90;52.40
74657;DHT22;63185;45.642;13.764;2022-10-15T15:32:48;25.60;52.70
74657;DHT22;63185;45.642;13.764;2022-10-15T15:35:41;25.30;53.50
74657;DHT22;63185;45.642;13.764;2022-10-15T15:38:10;25.00;54.10
74657;DHT22;63185;45.642;13.764;2022-10-15T15:40:36;24.90;54.10
74657;DHT22;63185;45.642;13.764;2022-10-15T15:43:02;25.10;53.60
74657;DHT22;63185;45.642;13.764;2022-10-15T15:45:28;25.10;53.30
74657;DHT22;63185;45.642;13.764;2022-10-15T15:47:54;25.10;53.70
74657;DHT22;63185;45.642;13.764;2022-10-15T15:50:23;25.10;53.70
74657;DHT22;63185;45.642;13.764;2022-10-15T15:52:48;25.20;52.60
74657;DHT22;63185;45.642;13.764;2022-10-15T15:55:14;24.80;53.40
74657;DHT22;63185;45.642;13.764;2022-10-15T15:57:40;24.70;53.70
74657;DHT22;63185;45.642;13.764;2022-10-15T16:00:08;24.40;54.30
74657;DHT22;63185;45.642;13.764;2022-10-15T16:02:34;24.30;54.80
74657;DHT22;63185;45.642;13.764;2022-10-15T16:05:00;23.80;56.00
74657;DHT22;63185;45.642;13.764;2022-10-15T16:07:28;23.60;56.90
74657;DHT22;63185;45.642;13.764;2022-10-15T16:09:54;23.00;58.60
74657;DHT22;63185;45.642;13.764;2022-10-15T16:12:20;22.60;59.80
74657;DHT22;63185;45.642;13.764;2022-10-15T16:14:46;22.30;60.60
74657;DHT22;63185;45.642;13.764;2022-10-15T16:17:11;22.20;61.10
74657;DHT22;63185;45.642;13.764;2022-10-15T16:19:37;21.90;62.20
74657;DHT22;63185;45.642;13.764;2022-10-15T16:22:03;21.70;62.80
74657;DHT22;63185;45.642;13.764;2022-10-15T16:24:28;21.70;63.00
74657;DHT22;63185;45.642;13.764;2022-10-15T16:26:54;21.60;63.40
74657;DHT22;63185;45.642;13.764;2022-10-15T16:29:20;21.60;63.50
74657;DHT22;63185;45.642;13.764;2022-10-15T16:31:46;21.50;63.60
74657;DHT22;63185;45.642;13.764;2022-10-15T16:34:11;21.40;63.90
74657;DHT22;63185;45.642;13.764;2022-10-15T16:36:37;21.40;63.80
74657;DHT22;63185;45.642;13.764;2022-10-15T16:39:03;21.40;64.00
74657;DHT22;63185;45.642;13.764;2022-10-15T16:41:32;21.40;64.20
74657;DHT22;63185;45.642;13.764;2022-10-15T16:43:58;21.40;63.60
74657;DHT22;63185;45.642;13.764;2022-10-15T16:46:24;21.40;63.20
74657;DHT22;63185;45.642;13.764;2022-10-15T16:48:54;21.30;63.40
74657;DHT22;63185;45.642;13.764;2022-10-15T16:51:21;21.30;63.40
74657;DHT22;63185;45.642;13.764;2022-10-15T16:53:48;21.30;63.30
74657;DHT22;63185;45.642;13.764;2022-10-15T16:56:17;21.40;63.00
74657;DHT22;63185;45.642;13.764;2022-10-15T16:58:43;21.40;63.00
74657;DHT22;63185;45.642;13.764;2022-10-15T17:01:18;21.40;63.10
74657;DHT22;63185;45.642;13.764;2022-10-15T17:03:45;21.40;63.10
74657;DHT22;63185;45.642;13.764;2022-10-15T17:06:15;21.40;62.90
74657;DHT22;63185;45.642;13.764;2022-10-15T17:08:47;21.50;62.70
74657;DHT22;63185;45.642;13.764;2022-10-15T17:11:22;21.40;62.80
74657;DHT22;63185;45.642;13.764;2022-10-15T17:13:49;21.30;63.40
74657;DHT22;63185;45.642;13.764;2022-10-15T17:16:22;21.20;63.90
74657;DHT22;63185;45.642;13.764;2022-10-15T17:18:48;21.10;64.60
74657;DHT22;63185;45.642;13.764;2022-10-15T17:21:17;21.00;65.10
74657;DHT22;63185;45.642;13.764;2022-10-15T17:23:44;20.90;65.40
74657;DHT22;63185;45.642;13.764;2022-10-15T17:26:13;20.90;66.00
74657;DHT22;63185;45.642;13.764;2022-10-15T17:28:42;20.90;66.30
74657;DHT22;63185;45.642;13.764;2022-10-15T17:31:11;20.80;66.40
74657;DHT22;63185;45.642;13.764;2022-10-15T17:33:38;20.80;66.80
74657;DHT22;63185;45.642;13.764;2022-10-15T17:36:15;20.70;67.50
74657;DHT22;63185;45.642;13.764;2022-10-15T17:38:41;20.70;67.90
74657;DHT22;63185;45.642;13.764;2022-10-15T17:41:12;20.60;68.70
74657;DHT22;63185;45.642;13.764;2022-10-15T17:43:38;20.60;68.90
74657;DHT22;63185;45.642;13.764;2022-10-15T17:46:15;20.50;69.50
74657;DHT22;63185;45.642;13.764;2022-10-15T17:48:41;20.50;69.60
74657;DHT22;63185;45.642;13.764;2022-10-15T17:51:09;20.50;70.00
74657;DHT22;63185;45.642;13.764;2022-10-15T17:53:35;20.40;70.30